NCAR-RAP Real-Time Weather Data

Output produced by METARs form (08 May 2021  17:02 UTC)
found at http://weather.rap.ucar.edu/surface/
 
KELY 081653Z AUTO VRB06KT 10SM CLR 09/M11 A3017 RMK AO2 SLP156 T00941111
KELY 081553Z AUTO 01007KT 10SM CLR 08/M08 A3018 RMK AO2 SLP169 T00831078
KELY 081453Z AUTO 01010KT 10SM CLR 06/M05 A3017 RMK AO2 SLP163 T00561050 53018
KELY 081353Z AUTO 01011KT 10SM CLR 03/M06 A3015 RMK AO2 SLP156 T00331056
KELY 081253Z AUTO 35011KT 10SM CLR 02/M06 A3012 RMK AO2 SLP149 T00171056
KELY 081153Z AUTO 36013KT 10SM CLR 03/M05 A3010 RMK AO2 SLP138 T00331050 10106 20028 51012
KELY 081053Z AUTO 36010KT 10SM CLR 04/M04 A3009 RMK AO2 SLP122 T00391039
KELY 080953Z AUTO 36007KT 10SM CLR 05/M03 A3008 RMK AO2 SLP114 T00501028
KELY 080853Z AUTO 01010KT 10SM CLR 07/M02 A3006 RMK AO2 SLP103 T00721017 53012
KELY 080753Z AUTO 03003KT 10SM CLR 07/M07 A3005 RMK AO2 SLP096 T00721067 402390056
KELY 080653Z AUTO 32006KT 10SM FEW100 FEW110 09/M07 A3002 RMK AO2 SLP090 T00891067
KELY 080553Z AUTO 02008KT 10SM CLR 10/M06 A3002 RMK AO2 SLP083 T01001061 10172 20094 51019
KELY 080453Z AUTO 34013KT 10SM CLR 13/M06 A3001 RMK AO2 SLP071 T01331061